Tiempo atmosférico en la estación meteorológica de A Coruña, A Coruña (58 m.)



Fecha
DESCASC
Temp. máxima en grados centígrados (hora)
DESCASC
Temp. mínima en grados centígrados (hora)
DESCASC
Temp. media en grados centígrados
DESCASC
Racha de viento máxima en m/sg (hora)
DESCASC
Velocidad máxima media en intervalos de 10 minutos(hora)
DESCASC
Precipitaciones diarias en mm
DESCASC
Precipitaciones de 00:00 a 06:00 en mm
DESCASC
Precipitaciones de 06:00 a 12:00 en mm
DESCASC
Precipitaciones de 12:00 a 18:00 en mm
DESCASC
Precipitaciones de 18:00 a 24:00 en mm
DESCASC
05-04-2020 18.5 (17:50) 12.9 (23:20) 15.7 14.17 (05:40) 7.5 (09:10) 12.6 0 2.6 10 0
04-04-2020 22.9 (14:30) 10.8 (05:50) 16.8 12.22 (15:00) 6.39 (15:00) 0 0 0 0 0
03-04-2020 16.3 (16:10) 6.9 (08:40) 11.6 8.61 (00:10) 5.56 (01:40) 0 0 0 0 0
02-04-2020 14.4 (14:50) 10 (00:00) 12.2 10.28 (04:30) 6.67 (04:40) 0 0 0 0 0
01-04-2020 13.9 (12:40) 9 (00:00) 11.4 8.89 (21:50) 5.83 (00:20) 6.4 1.6 4.8 0 0
31-03-2020 11 (14:50) 5.6 (00:00) 8.3 15.83 (04:50) 9.17 (13:40) 0 0 0 0 0
30-03-2020 10.3 (00:00) 6 (00:00) 8.2 22.5 (12:00) 12.22 (14:10) 0 0 0 0 0
29-03-2020 16.1 (14:30) 8 (00:00) 12.1 14.72 (18:40) 10 (18:40) 0 0 0 0 0
28-03-2020 19.3 (12:40) 7.9 (00:00) 13.6 8.61 (20:20) 5.56 (20:30) 0 0 0 0 0
27-03-2020 15.2 (14:20) 8.1 (00:00) 11.7 13.61 (17:50) 8.33 (17:50) 0 0 0 0 0
26-03-2020 13.3 (12:50) 7.9 (00:00) 10.6 12.5 (17:00) 9.44 (16:20) 0 0 0 0 0
25-03-2020 15.1 (14:20) 9.9 (00:00) 12.5 8.06 (13:50) 5 (13:50) 0 0 0 0 0
24-03-2020 17.7 (14:50) 9 (00:00) 13.4 6.67 (16:00) 3.89 (01:10) 0 0 0 0 0
23-03-2020 13.2 (14:00) 10.5 (00:00) 11.8 11.11 (15:00) 7.22 (09:30) 0 0 0 0 0
22-03-2020 15 (13:40) 11.9 (06:30) 13.4 11.39 (17:00) 7.78 (17:00) 0 0 0 0 0
21-03-2020 14.7 (13:10) 12 (00:00) 13.3 6.11 (14:20) 3.89 (17:10) 0 0 0 0 0
20-03-2020 15.7 (14:40) 12.2 (00:00) 13.9 5.28 (17:10) 3.61 (18:00) 24 4.8 12 3 4.2
19-03-2020 14 (13:50) 10.7 (00:00) 12.3 6.39 (14:10) 4.72 (14:20) 0.6 0 0 0 0.6
18-03-2020 17.2 (11:30) 9.8 (00:00) 13.5 6.11 (15:50) 3.89 (07:50) 0.4 0 0.4 0 0
17-03-2020 17.1 (14:50) 9.6 (00:00) 13.4 9.17 (02:20) 6.11 (00:20) 0 0 0 0 0
16-03-2020 12.5 (12:40) 8.9 (00:00) 10.7 15.83 (05:40) 10.56 (08:00) 1.2 0.4 0.8 0 0
15-03-2020 12.5 (09:50) 8.3 (00:00) 10.4 13.33 (22:20) 7.78 (16:30) 11 0 4.6 4.8 1.6
14-03-2020 15.7 (14:00) 9.4 (00:00) 12.5 6.67 (16:20) 4.44 (16:00) 0 0 0 0 0
13-03-2020 13.2 (12:20) 9.8 (05:40) 11.5 12.5 (15:20) 8.61 (15:20) 0 0 0 0 0
12-03-2020 13.6 (10:40) 10.1 (00:00) 11.9 10.56 (17:50) 6.39 (18:50) 0.2 0 0 0.2 0
11-03-2020 16.6 (14:30) 12.9 (00:00) 14.8 8.61 (15:40) 5.83 (15:00) 0 0 0 0 0
10-03-2020 17 (15:40) 10.4 (00:00) 13.7 9.17 (16:30) 5.28 (18:50) 0 0 0 0 0
09-03-2020 15.9 (13:20) 10 (00:00) 12.9 9.17 (17:00) 6.11 (15:00) 0 0 0 0 0

Gráficas

Temp. máximas Temp. mínimas Temp. medias Precipitaciones Rachas de viento máximas Velocidades máximas media en intervalos de 10 minutos

Datos horarios

Fecha y hora oficial Temperatura (ºC) Velocidad del viento (km/h) Dirección del viento Racha (km/h) Dirección de racha Precipitación (mm) Presión (hPa) Tendencia (hPa) Humedad (%)
2020-04-07 23:00:00 15.3 4 Sudeste 5 Sudeste 0 1014.9 0.9 85
2020-04-07 22:00:00 15.3 0 Calma 8 Noroeste 0 1014.6 0.8 85
2020-04-07 21:00:00 15.5 5 Norte 10 Nordeste 0 1014.1 0.6 85
2020-04-07 20:00:00 15.8 4 Nordeste 9 Noroeste 0 1014 0.2 82
2020-04-07 19:00:00 15.9 8 Norte 14 Norte 0 1013.8 0.5 81
2020-04-07 18:00:00 16.4 7 Noroeste 12 Oeste 0.2 1013.5 0.3 80
2020-04-07 17:00:00 17 10 Oeste 18 Oeste 0 1013.8 0.4 79
2020-04-07 16:00:00 17.7 9 Norte 12 Norte 0.2 1013.3 0.2 84
2020-04-07 15:00:00 18 5 Nordeste 12 Sur 0 1013.2 0.4 84
2020-04-07 14:00:00 17.6 7 Sudoeste 24 Sudoeste 0.6 1013.4 0.9 82
2020-04-07 13:00:00 18 6 Norte 12 Norte 0 1013.1 0.6 68
2020-04-07 12:00:00 18.7 5 Nordeste 12 Sudeste 0 1012.8 0.5 66
2020-04-07 11:00:00 17.6 6 Sudeste 15 Sudeste 0 1012.5 0.6 69
2020-04-07 10:00:00 15.1 8 Sudeste 14 Sudeste 0 1012.5 0.4 74
2020-04-07 09:00:00 13.3 4 Sudeste 14 Sudeste 0 1012.3 0.2 81
2020-04-07 08:00:00 13.1 3 Este 8 Sudeste 0 1011.9 -0.5 85
2020-04-07 07:00:00 13.1 4 Este 12 Sudeste 0 1012.1 -0.5 85
2020-04-07 06:00:00 13.3 6 Este 11 Este 0 1012.1 -0.9 83
2020-04-07 05:00:00 13.4 6 Este 13 Este 0 1012.4 -0.5 81
2020-04-07 04:00:00 13.6 7 Este 11 Este 0 1012.6 -0.2 78
2020-04-07 03:00:00 13.7 4 Nordeste 10 Este 0 1013 -0.2 76
2020-04-07 02:00:00 14.1 5 Este 10 Este 0 1012.9 -0.5 72
2020-04-07 01:00:00 14.3 5 Este 13 Este 0 1012.8 -0.3 67
2020-04-07 00:00:00 14.5 5 Este 9 Este 0 1013.2 0.7 68
2020-04-06 23:00:00 14.8 6 Este 14 Este 0 1013.4 0.8 68
2020-04-06 22:00:00 15 8 Este 21 Este 0 1013.1 0.8 64
2020-04-06 21:00:00 15.5 17 Nordeste 28 Nordeste 0 1012.5 0.2 63
2020-04-06 20:00:00 16.1 17 Nordeste 28 Nordeste 0 1012.6 0.1 58
2020-04-06 19:00:00 15.6 12 Norte 24 Nordeste 0 1012.3 -0.6 61
2020-04-06 18:00:00 15.1 11 Norte 22 Norte 0 1012.3 -0.4 72
2020-04-06 17:00:00 15.3 12 Norte 23 Norte 0 1012.5 -0.1 71
2020-04-06 16:00:00 15.2 10 Norte 20 Nordeste 0 1012.9 0.5 77
2020-04-06 15:00:00 15.1 9 Norte 17 Nordeste 0 1012.7 0.5 75
2020-04-06 14:00:00 16.3 8 Norte 12 Este 0 1012.6 0.8 71
2020-04-06 13:00:00 16.8 8 Este 13 Este 0 1012.4 1 63
2020-04-06 12:00:00 14.6 7 Sudeste 15 Sur 0 1012.2 1.3 77
2020-04-06 11:00:00 12.9 8 Sudeste 14 Sudeste 0 1011.8 2 85
2020-04-06 10:00:00 12.1 7 Sudeste 12 Sudeste 0 1011.4 2.3 87
2020-04-06 09:00:00 11.6 3 Sudeste 12 Sudeste 0 1010.9 2.5 88
2020-04-06 08:00:00 11.5 8 Sudeste 13 Sudeste 0 1009.8 1.8 86
2020-04-06 07:00:00 11.8 4 Sudoeste 10 Sudoeste 0 1009.1 1.4 84
2020-04-06 06:00:00 11.6 6 Sur 12 Sur 0 1008.4 0.7 84
2020-04-06 05:00:00 12.1 9 Sur 12 Sur 0 1008 0.6 82
2020-04-06 04:00:00 12.2 7 Sudoeste 18 Sudoeste 0 1007.7 0.7 82
2020-04-06 03:00:00 12.6 14 Sudoeste 22 Sudoeste 0 1007.7 0.8 81
2020-04-06 02:00:00 12.8 11 Sudoeste 21 Sudoeste 0 1007.4 1.2 79
2020-04-06 01:00:00 12.8 11 Sudoeste 21 Sudoeste 0 1007 1.8 83
2020-04-06 00:00:00 13 12 Sudoeste 19 Sudoeste 0 1006.9 2.6 83
2020-04-05 23:00:00 13.1 6 Oeste 19 Oeste 0 1006.2 2.8 87
2020-04-05 22:00:00 13.6 8 Oeste 22 Oeste 0 1005.2 2.7 85
2020-04-05 21:00:00 14.3 14 Oeste 27 Oeste 0 1004.3 2.5 80
2020-04-05 20:00:00 15.3 13 Oeste 35 Sudoeste 0 1003.4 2.2 80
2020-04-05 19:00:00 15.5 19 Oeste 49 Oeste 0 1002.5 1.9 80
2020-04-05 18:00:00 16.5 25 Oeste 45 Oeste 0 1001.8 1.8 79
2020-04-05 17:00:00 17.9 25 Sudoeste 39 Sudoeste 0 1001.2 1.6 71
2020-04-05 16:00:00 16.5 12 Sur 34 Sudoeste 0.2 1000.6 1.1 79
2020-04-05 15:00:00 15.7 19 Sudoeste 39 Sur 7.6 1000 0.4 85
2020-04-05 14:00:00 16.5 13 Sur 37 Sur 1.6 999.6 0.4 85
2020-04-05 13:00:00 17 17 Sur 32 Sur 0.6 999.5 0.2 83
2020-04-05 12:00:00 15.6 9 Sudeste 30 Sur 1.4 999.6 1.1 90
2020-04-05 11:00:00 15 18 Sudeste 34 Sur 0.2 999.2 1.5 87
2020-04-05 10:00:00 14.1 18 Sudeste 46 Sudeste 1 999.3 1.7 87
2020-04-05 09:00:00 15.2 25 Sur 47 Sudeste 0 998.5 0.7 75
2020-04-05 08:00:00 15.2 21 Sur 47 Sur 0 997.7 -0.5 73
2020-04-05 07:00:00 15.7 21 Sur 49 Sur 0 997.6 -0.6 68
2020-04-05 06:00:00 15.9 21 Sur 51 Sur 0 997.8 -0.9 67
2020-04-05 05:00:00 16.9 18 Sur 45 Sur 0 998.2 -1.2 58
2020-04-05 04:00:00 17.4 18 Sur 50 Sur 0 998.2 -1.4 53
2020-04-05 03:00:00 17.4 15 Sudeste 47 Sur 0 998.7 -1.4 51
2020-04-05 02:00:00 17.7 17 Sur 45 Sur 0 999.4 -1.2 47
2020-04-05 01:00:00 17.6 17 Sudeste 45 Sudeste 0 999.6 -1 47
2020-04-05 00:00:00 16.9 14 Sur 32 Sudeste 0 1000.1 -0.3 53
2020-04-04 23:00:00 17.1 6 Sudeste 18 Sur 0 1000.6 0.5 53
2020-04-04 22:00:00 17.7 10 Sur 27 Sudoeste 0 1000.6 0.7 50
2020-04-04 21:00:00 19.1 17 Sudoeste 31 Sudoeste 0 1000.4 0.4 48
2020-04-04 20:00:00 20.8 14 Sudeste 41 Sur 0 1000.1 -0.1 37
2020-04-04 19:00:00 21.6 14 Sudeste 40 Sur 0 999.9 -1 34
2020-04-04 18:00:00 21.7 15 Sudeste 37 Sur 0 1000 -1.6 34
2020-04-04 17:00:00 22.5 16 Sur 40 Sur 0 1000.2 -1.8 31
2020-04-04 16:00:00 22 20 Sudeste 36 Sur 0 1000.9 -2 32
2020-04-04 15:00:00 22.3 23 Sur 44 Sur 0 1001.6 -1.8 32
2020-04-04 14:00:00 22.3 19 Sur 41 Sudeste 0 1002 -1.4 33
2020-04-04 13:00:00 21.4 22 Sudeste 39 Sur 0 1002.9 -0.9 36
2020-04-04 12:00:00 19.7 13 Sudeste 31 Sur 0 1003.4 -0.2 43
2020-04-04 11:00:00 17.7 14 Sudeste 28 Sudeste 0 1003.4 0 47
2020-04-04 10:00:00 15.2 13 Sudeste 26 Sur 0 1003.8 0.3 52
2020-04-04 09:00:00 12.5 10 Sur 18 Sur 0 1003.6 -0.2 61
2020-04-04 08:00:00 12 10 Sur 15 Sur 0 1003.4 -0.8 65
2020-04-04 07:00:00 11.7 10 Sudeste 17 Sudeste 0 1003.5 -1.4 69
2020-04-04 06:00:00 10.9 8 Sudeste 15 Sudeste 0 1003.8 -1.9 79
2020-04-04 05:00:00 11.3 8 Sudeste 16 Sudeste 0 1004.2 -2 77
2020-04-04 04:00:00 11.8 12 Sudeste 19 Sudeste 0 1004.9 -1.5 74
2020-04-04 03:00:00 11.6 6 Sudeste 13 Sudeste 0 1005.7 -0.9 75
2020-04-04 02:00:00 12.3 9 Sudeste 17 Sudeste 0 1006.2 -0.5 73
2020-04-04 01:00:00 12.3 7 Sudeste 13 Sudeste 0 1006.4 0 72
2020-04-04 00:00:00 13.1 5 Sudeste 9 Sur 0 1006.6 0.5 66
2020-04-03 23:00:00 13.7 5 Este 10 Este 0 1006.7 0.5 67
2020-04-03 22:00:00 13.9 3 Oeste 6 Sudoeste 0 1006.4 0.2 62
2020-04-03 21:00:00 14.6 2 Noroeste 10 Noroeste 0 1006.1 -0.4 63
2020-04-03 20:00:00 15.1 5 Noroeste 13 Noroeste 0 1006.2 -0.6 56
2020-04-03 19:00:00 14.8 8 Norte 19 Norte 0 1006.2 -1.1 64
2020-04-03 18:00:00 15.5 12 Norte 21 Norte 0 1006.5 -1.5 65
2020-04-03 17:00:00 15.7 12 Norte 22 Norte 0 1006.8 -1.4 66
2020-04-03 16:00:00 15.9 11 Norte 20 Norte 0 1007.3 -1.7 65
2020-04-03 15:00:00 15.5 10 Noroeste 18 Noroeste 0 1008 -1.3 65
2020-04-03 14:00:00 14.7 12 Norte 16 Norte 0 1008.2 -0.9 64
2020-04-03 13:00:00 14.5 8 Norte 12 Nordeste 0 1009 -0.4 63
2020-04-03 12:00:00 13.5 7 Nordeste 19 Este 0 1009.3 -0.5 64
2020-04-03 11:00:00 11.1 8 Este 17 Este 0 1009.1 -0.5 69
2020-04-03 10:00:00 9.5 5 Este 14 Este 0 1009.4 -0.4 72
2020-04-03 09:00:00 7.1 6 Este 15 Este 0 1009.8 -0.2 84
2020-04-03 08:00:00 7.1 6 Este 13 Este 0 1009.6 -0.6 86
2020-04-03 07:00:00 7.7 8 Este 15 Este 0 1009.8 -0.8 83
2020-04-03 06:00:00 8.1 10 Este 22 Este 0 1010 -1.4 79
2020-04-03 05:00:00 8.6 14 Este 27 Nordeste 0 1010.2 -1.3 77
2020-04-03 04:00:00 8.9 18 Nordeste 29 Nordeste 0 1010.6 -1.5 77
2020-04-03 03:00:00 9.3 18 Nordeste 29 Nordeste 0 1011.4 -0.9 77
2020-04-03 02:00:00 9.5 18 Nordeste 29 Nordeste 0 1011.5 -0.9 77
2020-04-03 01:00:00 9.7 19 Nordeste 31 Nordeste 0 1012.1 -0.1 78
2020-04-03 00:00:00 10 19 Nordeste 30 Nordeste 0 1012.3 0.7 78
2020-04-02 23:00:00 10.4 14 Nordeste 27 Nordeste 0 1012.4 1.1 78
2020-04-02 22:00:00 10.9 14 Nordeste 29 Este 0 1012.2 1.1 77
2020-04-02 21:00:00 11.5 20 Nordeste 31 Nordeste 0 1011.6 0.4 74
2020-04-02 20:00:00 11.5 17 Nordeste 36 Norte 0 1011.3 0 80
2020-04-02 19:00:00 12 20 Norte 34 Nordeste 0 1011.1 0 80
2020-04-02 18:00:00 12.5 19 Norte 33 Norte 0 1011.2 -0.1 78
2020-04-02 17:00:00 12.6 18 Norte 33 Norte 0 1011.3 -0.2 78
2020-04-02 16:00:00 12.4 18 Norte 34 Norte 0 1011.1 -0.5 78
2020-04-02 15:00:00 13.2 19 Norte 31 Norte 0 1011.3 0 75
2020-04-02 14:00:00 12.5 15 Nordeste 29 Este 0 1011.5 0.7 76
2020-04-02 13:00:00 11.9 15 Nordeste 27 Nordeste 0 1011.6 1.6 84
2020-04-02 12:00:00 12 14 Norte 24 Norte 0 1011.3 1.8 86
2020-04-02 11:00:00 11.9 14 Nordeste 25 Norte 0 1010.8 1.8 83
2020-04-02 10:00:00 11.9 14 Nordeste 28 Nordeste 0 1010 1.4 84
2020-04-02 09:00:00 11.5 18 Nordeste 35 Norte 0 1009.5 1.3 85
2020-04-02 08:00:00 11.5 17 Nordeste 29 Norte 0 1009 0.8 86
2020-04-02 07:00:00 11.5 14 Nordeste 33 Nordeste 0 1008.6 0.4 87
2020-04-02 06:00:00 11.4 21 Nordeste 36 Nordeste 0 1008.2 -0.2 88
2020-04-02 05:00:00 11.3 21 Nordeste 37 Nordeste 0 1008.2 -0.1 88
2020-04-02 04:00:00 11.3 18 Nordeste 28 Nordeste 0 1008.2 0 89
2020-04-02 03:00:00 11.2 15 Nordeste 29 Nordeste 0 1008.4 0.3 91
2020-04-02 02:00:00 11.2 17 Nordeste 29 Norte 0 1008.3 0.4 93
2020-04-02 01:00:00 11.4 14 Nordeste 29 Nordeste 0 1008.2 0.9 93
2020-04-02 00:00:00 11.7 19 Norte 29 Norte 0 1008.1 1.6 90
2020-04-01 23:00:00 12.1 13 Nordeste 31 Nordeste 0 1007.9 1.7 84
2020-04-01 22:00:00 12.3 19 Nordeste 32 Nordeste 0 1007.3 1.8 84
2020-04-01 21:00:00 12.5 15 Nordeste 30 Nordeste 0 1006.5 1.5 86
2020-04-01 20:00:00 13.1 17 Nordeste 27 Nordeste 0 1006.2 1.2 82
2020-04-01 19:00:00 13.1 9 Nordeste 22 Norte 0 1005.5 0.1 84
2020-04-01 18:00:00 13 13 Nordeste 26 Norte 0 1005 -0.4 88
2020-04-01 17:00:00 13 12 Norte 22 Nordeste 0 1005 -0.6 89
2020-04-01 16:00:00 12.9 9 Noroeste 18 Noroeste 0 1005.4 -0.2 83
2020-04-01 15:00:00 13.5 8 Oeste 16 Oeste 0 1005.4 0.1 80
2020-04-01 14:00:00 13.1 12 Oeste 18 Noroeste 0 1005.6 0.4 81
2020-04-01 13:00:00 12.8 8 Noroeste 16 Noroeste 0 1005.6 1 76
2020-04-01 12:00:00 13.6 8 Norte 10 Norte 0 1005.3 1.2 80
2020-04-01 11:00:00 11.8 3 Sudeste 8 Sudeste 0 1005.2 1.7 83
2020-04-01 10:00:00 9.9 3 Sudeste 10 Sudoeste 0 1004.6 1.5 92
2020-04-01 09:00:00 9.3 7 Sur 10 Sur 0.2 1004.1 1.2 94
2020-04-01 08:00:00 9 4 Nordeste 6 Sudeste 1.2 1003.5 1.1 93
2020-04-01 07:00:00 9 4 Sudeste 9 Sudeste 3.4 1003.1 1 91
2020-04-01 06:00:00 9.5 5 Sudeste 16 Sur 1.4 1002.9 1.2 85
2020-04-01 05:00:00 10.2 8 Sur 13 Este 0.2 1002.4 0.9 78
2020-04-01 04:00:00 10.3 5 Este 15 Sudeste 0 1002.1 0.5 76
2020-04-01 03:00:00 10.3 8 Sudeste 22 Este 0 1001.7 0.1 77
2020-04-01 02:00:00 10.5 15 Este 29 Este 0 1001.5 0.1 78
2020-04-01 01:00:00 10.4 17 Este 32 Este 0 1001.6 0.3 79
2020-04-01 00:00:00 10.4 19 Este 34 Este 0 1001.6 0.7 77
2020-03-31 23:00:00 10.3 18 Este 35 Este 0 1001.4 0.7 77
2020-03-31 22:00:00 10.5 22 Este 38 Nordeste 0 1001.3 0.6 72
2020-03-31 21:00:00 10.2 22 Este 41 Este 0 1000.9 0 75
2020-03-31 20:00:00 10.4 20 Este 43 Este 0 1000.7 -0.3 74
2020-03-31 19:00:00 10.3 20 Este 39 Este 0 1000.7 -0.2 74
2020-03-31 18:00:00 10.3 19 Este 45 Este 0 1000.9 -0.4 72
2020-03-31 17:00:00 10.4 22 Este 54 Este 0 1001 -0.5 69
2020-03-31 16:00:00 10.7 30 Este 55 Este 0 1000.9 -1.1 65
2020-03-31 15:00:00 10.9 31 Este 56 Este 0 1001.3 -1 59
2020-03-31 14:00:00 10.3 27 Este 54 Nordeste 0 1001.5 -1.5 54
2020-03-31 13:00:00 9.4 26 Este 49 Nordeste 0 1002 -1.6 59
2020-03-31 12:00:00 8.7 26 Nordeste 39 Este 0 1002.3 -2 68
2020-03-31 11:00:00 8.5 19 Nordeste 34 Nordeste 0 1003 -1.7 72
2020-03-31 10:00:00 7.1 19 Nordeste 29 Nordeste 0 1003.6 -1.3 76
2020-03-31 09:00:00 5.6 15 Nordeste 36 Nordeste 0 1004.3 -1.2 83
2020-03-31 08:00:00 5.8 25 Este 41 Este 0 1004.7 -1.6 83
2020-03-31 07:00:00 6.1 16 Nordeste 46 Nordeste 0 1004.9 -2 78
2020-03-31 06:00:00 6.4 16 Este 37 Nordeste 0 1005.5 -2.4 73
2020-03-31 05:00:00 6.9 30 Nordeste 57 Este 0 1006.3 -2.6 73
2020-03-31 04:00:00 7.7 22 Nordeste 44 Este 0 1006.9 -2.6 60
2020-03-31 03:00:00 7.8 23 Nordeste 40 Nordeste 0 1007.9 -2.4 61
2020-03-31 02:00:00 7.8 23 Este 48 Nordeste 0 1008.9 -2 63
2020-03-31 01:00:00 8 31 Nordeste 46 Nordeste 0 1009.5 -1.7 59
2020-03-31 00:00:00 7.6 22 Este 43 Este 0 1010.3 -0.6 62
2020-03-30 23:00:00 6.3 15 Este 41 Este 0 1010.9 0.2 78
2020-03-30 22:00:00 6.2 24 Este 43 Este 0 1011.2 0.8 80
2020-03-30 21:00:00 6.8 24 Este 63 Nordeste 0 1010.9 0.5 73
2020-03-30 20:00:00 7.8 39 Este 67 Nordeste 0 1010.7 -0.1 61
2020-03-30 19:00:00 7.8 40 Nordeste 62 Nordeste 0 1010.4 -0.9 66
2020-03-30 18:00:00 9 32 Este 58 Este 0 1010.4 -1.6 56
2020-03-30 17:00:00 8.9 37 Nordeste 58 Nordeste 0 1010.8 -2.1 54
2020-03-30 16:00:00 9.2 36 Este 61 Nordeste 0 1011.3 -1.8 46
2020-03-30 15:00:00 8.9 42 Nordeste 71 Nordeste 0 1012 -1.6 53
2020-03-30 14:00:00 9.2 43 Nordeste 64 Nordeste 0 1012.9 -0.6 56
2020-03-30 13:00:00 9.2 36 Este 61 Nordeste 0 1013.1 -0.3 52
2020-03-30 12:00:00 8.9 41 Este 81 Nordeste 0 1013.6 0.3 54
2020-03-30 11:00:00 9.4 37 Nordeste 66 Este 0 1013.5 0.5 59
2020-03-30 10:00:00 9 36 Nordeste 63 Este 0 1013.4 0.6 58
2020-03-30 09:00:00 8.5 35 Nordeste 62 Nordeste 0 1013.3 0.6 64
2020-03-30 08:00:00 8.5 32 Nordeste 64 Este 0 1013 -0.5 68
2020-03-30 07:00:00 9.1 32 Nordeste 55 Nordeste 0 1012.8 -1.1 66
2020-03-30 06:00:00 9.3 27 Este 45 Este 0 1012.7 -1.3 56
2020-03-30 05:00:00 9.3 30 Este 55 Este 0 1013.5 -1 61
2020-03-30 04:00:00 9.5 28 Este 58 Nordeste 0 1013.9 -0.6 66
2020-03-30 03:00:00 9.8 33 Nordeste 50 Este 0 1014 -0.6 72
2020-03-30 02:00:00 9.8 28 Este 53 Este 0 1014.5 0.3 69
2020-03-30 01:00:00 10 29 Nordeste 46 Nordeste 0 1014.5 0.8 73
2020-03-30 00:00:00 10.3 31 Nordeste 46 Este 0 1014.6 1.6 75
2020-03-29 23:00:00 11 28 Nordeste 46 Nordeste 0 1014.2 1.6 73
2020-03-29 22:00:00 11.7 28 Nordeste 48 Nordeste 0 1013.7 1.7 73
2020-03-29 21:00:00 12.6 22 Nordeste 48 Este 0 1013 1.3 70
2020-03-29 20:00:00 13.4 31 Nordeste 50 Nordeste 0 1012.6 0.8 63
2020-03-29 19:00:00 14.4 28 Este 53 Nordeste 0 1012 0 54
2020-03-29 18:00:00 15.3 32 Nordeste 46 Este 0 1011.7 -0.7 49
2020-03-29 17:00:00 15.7 30 Nordeste 45 Nordeste 0 1011.8 -1.1 54
2020-03-29 16:00:00 15.5 32 Nordeste 50 Nordeste 0 1012 -1.4 56
2020-03-29 15:00:00 15.7 33 Nordeste 48 Nordeste 0 1012.4 -1.4 58
2020-03-29 14:00:00 15.7 22 Nordeste 33 Nordeste 0 1012.9 -1 60
2020-03-29 13:00:00 14.2 11 Nordeste 18 Nordeste 0 1013.4 -0.3 67
2020-03-29 12:00:00 13.3 9 Nordeste 19 Este 0 1013.8 0.3 73
2020-03-29 11:00:00 11.5 8 Nordeste 13 Nordeste 0 1013.9 0.8 80
2020-03-29 10:00:00 10 6 Este 12 Este 0 1013.7 0.8 83
2020-03-29 09:00:00 8.1 3 Este 7 Este 0 1013.5 0.8 87
2020-03-29 08:00:00 8.2 3 Este 9 Este 0 1013.1 0.2 86
2020-03-29 07:00:00 8.5 4 Este 9 Nordeste 0 1012.9 -0.2 86
2020-03-29 06:00:00 9 3 Sudeste 6 Sudeste 0 1012.7 -0.5 84
2020-03-29 05:00:00 9.3 2 Este 8 Este 0 1012.9 -0.5 82
2020-03-29 03:00:00 10.4 7 Este 15 Este 0 1013.2 0 80
2020-03-29 01:00:00 10.8 10 Este 18 Este 0 1013.4 0.4 75
2020-03-29 00:00:00 11.2 12 Este 24 Nordeste 0 1013.4 0.8 76
2020-03-28 23:00:00 11.7 15 Este 27 Este 0 1013.2 1.5 75
2020-03-28 22:00:00 12.3 13 Este 26 Nordeste 0 1013 1.9 75
2020-03-28 21:00:00 13.1 15 Nordeste 31 Nordeste 0 1012.6 2.1 71
2020-03-28 20:00:00 14.4 15 Nordeste 23 Nordeste 0 1011.7 1.4 66
2020-03-28 19:00:00 14.4 7 Norte 28 Norte 0 1011.1 0.6 75
2020-03-28 18:00:00 14.7 15 Norte 23 Norte 0 1010.5 -0.3 73
2020-03-28 17:00:00 15.4 10 Norte 22 Norte 0 1010.3 -0.7 67
2020-03-28 16:00:00 16.3 14 Norte 26 Norte 0 1010.5 -0.5 58
2020-03-28 15:00:00 16 12 Norte 22 Norte 0 1010.8 -0.2 66
2020-03-28 14:00:00 16 11 Noroeste 22 Norte 0 1011 0 58
2020-03-28 13:00:00 16 10 Norte 19 Sur 0 1011 0.4 53
2020-03-28 12:00:00 18.2 6 Este 14 Sudeste 0 1011 1 39
2020-03-28 11:00:00 15.7 6 Sudeste 19 Sudeste 0 1011 1.5 42
2020-03-28 10:00:00 13 9 Sudeste 18 Sudeste 0 1010.6 1.7 49
2020-03-28 09:00:00 10.6 10 Sudeste 17 Sudeste 0 1010 1.5 58
2020-03-28 08:00:00 8.3 10 Sudeste 19 Sudeste 0 1009.5 1.3 69
2020-03-28 07:00:00 8.1 12 Sudeste 21 Sudeste 0 1008.9 0.9 72
2020-03-28 06:00:00 8.5 10 Sudeste 17 Sudeste 0 1008.5 0.5 69
2020-03-28 05:00:00 8.5 9 Sudeste 15 Sudeste 0 1008.2 0.2 72
2020-03-28 04:00:00 8.9 10 Sudeste 17 Sudeste 0 1008 0 71
2020-03-28 03:00:00 8.8 9 Sudeste 17 Sudeste 0 1008 0.2 72
2020-03-28 02:00:00 9.5 8 Sudeste 19 Sudeste 0 1008 0.5 69
2020-03-28 01:00:00 9.9 12 Sudeste 19 Sudeste 0 1008 0.7 67
2020-03-28 00:00:00 10.2 8 Sudeste 21 Sudeste 0 1007.8 1 66
2020-03-27 23:00:00 10.8 13 Sudeste 24 Sudeste 0 1007.5 1.7 64
2020-03-27 22:00:00 11.1 7 Sudeste 22 Este 0 1007.3 2.4 64
2020-03-27 21:00:00 11.5 14 Este 25 Este 0 1006.8 2.6 63
2020-03-27 20:00:00 12.1 14 Este 32 Nordeste 0 1005.8 1.7 61
2020-03-27 19:00:00 12.9 22 Nordeste 45 Nordeste 0 1004.9 0.5 60
2020-03-27 18:00:00 13.3 28 Nordeste 49 Este 0 1004.2 -0.6 56
2020-03-27 17:00:00 14 24 Nordeste 42 Nordeste 0 1004.1 -1 54
2020-03-27 16:00:00 13.8 22 Nordeste 45 Nordeste 0 1004.4 -1.2 60
2020-03-27 15:00:00 13.4 24 Norte 46 Norte 0 1004.8 -1.5 57
2020-03-27 14:00:00 15 16 Nordeste 29 Este 0 1005.1 -1.5 43
2020-03-27 13:00:00 14.2 23 Nordeste 32 Nordeste 0 1005.6 -0.9 41
2020-03-27 12:00:00 14.3 13 Este 29 Nordeste 0 1006.3 -0.2 39
2020-03-27 11:00:00 12.5 18 Este 30 Este 0 1006.6 0.4 48
2020-03-27 10:00:00 11.2 11 Este 19 Este 0 1006.5 0.7 56
2020-03-27 09:00:00 9.5 11 Este 29 Nordeste 0 1006.5 0.6 62
2020-03-27 08:00:00 8.4 15 Nordeste 29 Nordeste 0 1006.2 0.3 67
2020-03-27 07:00:00 8.2 17 Nordeste 28 Este 0 1005.8 -0.2 70
2020-03-27 06:00:00 8.3 13 Nordeste 25 Nordeste 0 1005.9 -0.3 67
2020-03-27 05:00:00 8.4 16 Nordeste 28 Nordeste 0 1005.9 -0.4 66
2020-03-27 04:00:00 8.8 17 Nordeste 31 Nordeste 0 1006 -0.7 69
2020-03-27 03:00:00 9.3 20 Nordeste 32 Nordeste 0 1006.2 -0.5 71
2020-03-27 02:00:00 9.8 15 Nordeste 26 Este 0 1006.3 -0.9 70
2020-03-27 01:00:00 10.3 16 Nordeste 31 Nordeste 0 1006.7 -0.7 72
2020-03-27 00:00:00 10.1 14 Nordeste 25 Nordeste 0 1006.7 -0.6 70
2020-03-26 23:00:00 10.1 16 Nordeste 28 Nordeste 0 1007.2 0.4 68
2020-03-26 22:00:00 10.3 17 Nordeste 39 Nordeste 0 1007.4 1 67
2020-03-26 21:00:00 10.7 24 Nordeste 41 Nordeste 0 1007.3 1.1 64
2020-03-26 20:00:00 11.3 25 Nordeste 37 Nordeste 0 1006.8 0.3 62
2020-03-26 19:00:00 12.2 23 Nordeste 35 Norte 0 1006.4 -0.4 60
2020-03-26 18:00:00 12.1 22 Norte 44 Norte 0 1006.2 -1 66
2020-03-26 17:00:00 12.1 29 Norte 45 Norte 0 1006.5 -1.3 66
2020-03-26 16:00:00 12.5 31 Norte 42 Norte 0 1006.8 -1.7 66
2020-03-26 15:00:00 12.5 24 Norte 42 Norte 0 1007.2 -1.6 67
2020-03-26 14:00:00 12.8 22 Norte 35 Norte 0 1007.8 -1.1 64
2020-03-26 13:00:00 13.2 18 Norte 27 Norte 0 1008.5 -0.4 66
2020-03-26 12:00:00 12.8 9 Norte 22 Nordeste 0 1008.8 -0.1 66
2020-03-26 11:00:00 12.3 12 Nordeste 18 Nordeste 0 1008.9 -0.1 69
2020-03-26 10:00:00 11.6 9 Este 13 Este 0 1008.9 0.4 76
2020-03-26 09:00:00 10.3 4 Este 10 Sudeste 0 1008.9 0.4 85
2020-03-26 08:00:00 8.1 5 Sudeste 9 Sudeste 0 1009 0.6 94
2020-03-26 07:00:00 8.1 6 Sudeste 15 Este 0 1008.5 -0.3 96
2020-03-26 06:00:00 8.4 8 Este 12 Este 0 1008.5 -0.5 95
2020-03-26 05:00:00 9.1 8 Este 12 Este 0 1008.4 -0.8 94
2020-03-26 04:00:00 10 4 Nordeste 8 Este 0 1008.8 -0.5 94
2020-03-26 03:00:00 10.5 4 Este 13 Este 0 1009 -0.5 94
2020-03-26 02:00:00 11.3 6 Nordeste 9 Norte 0 1009.2 -0.6 92
2020-03-26 01:00:00 11.6 2 Oeste 10 Noroeste 0 1009.3 -0.5 90
2020-03-26 00:00:00 11.8 7 Norte 10 Norte 0 1009.5 -0.2 88
2020-03-25 23:00:00 12 3 Noroeste 6 Noroeste 0 1009.8 0.3 92
2020-03-25 22:00:00 11.9 5 Norte 8 Norte 0 1009.8 0.3 90
2020-03-25 21:00:00 12.3 5 Oeste 9 Oeste 0 1009.7 0.3 88
2020-03-25 20:00:00 12.4 5 Oeste 14 Oeste 0 1009.5 0.4 86
2020-03-25 19:00:00 12.6 7 Oeste 19 Oeste 0 1009.5 0.1 85
2020-03-25 18:00:00 12.8 15 Oeste 23 Oeste 0 1009.4 -0.1 85
2020-03-25 17:00:00 13.5 13 Oeste 27 Noroeste 0 1009.1 -0.5 84
2020-03-25 16:00:00 14.3 16 Oeste 23 Oeste 0 1009.4 -0.5 82
2020-03-25 15:00:00 14.6 14 Oeste 28 Noroeste 0 1009.5 -0.4 81
2020-03-25 14:00:00 14.7 17 Oeste 29 Noroeste 0 1009.6 -0.1 80
2020-03-25 13:00:00 14.1 15 Oeste 25 Oeste 0 1009.9 0.5 82
2020-03-25 12:00:00 13.9 13 Oeste 22 Oeste 0 1009.9 0.7 83
2020-03-25 11:00:00 13.1 10 Noroeste 17 Oeste 0 1009.7 1.1 88
2020-03-25 10:00:00 12.6 7 Oeste 14 Oeste 0 1009.4 1.1 92
2020-03-25 09:00:00 11.6 5 Noroeste 15 Oeste 0 1009.2 1 97
2020-03-25 08:00:00 10.3 7 Oeste 12 Oeste 0 1008.6 0.8 92
2020-03-25 07:00:00 9.9 2 Sur 8 Sur 0 1008.3 0.4 91
2020-03-25 06:00:00 10.5 4 Sur 9 Sur 0 1008.2 0.1 89
2020-03-25 05:00:00 11.2 7 Sur 13 Sur 0 1007.8 -0.5 90
2020-03-25 04:00:00 11.2 4 Sudeste 7 Sur 0 1007.9 -0.5 90
2020-03-25 03:00:00 12.1 5 Sur 10 Sur 0 1008.1 -0.3 89
2020-03-25 02:00:00 12.2 3 Sur 6 Sur 0 1008.3 -0.1 89
2020-03-25 01:00:00 12.5 2 Sudoeste 9 Oeste 0 1008.4 0.4 89
2020-03-25 00:00:00 12.8 6 Oeste 10 Noroeste 0 1008.4 0.4 88
2020-03-24 23:00:00 13.3 6 Sudoeste 9 Oeste 0 1008.4 0.7 86
2020-03-24 22:00:00 13.9 5 Oeste 11 Oeste 0 1008 0.5 83
2020-03-24 21:00:00 14.9 5 Oeste 9 Oeste 0 1008 0.7 79
2020-03-24 20:00:00 15.8 5 Oeste 7 Oeste 0 1007.7 0.3 76
2020-03-24 19:00:00 15.6 3 Noroeste 18 Norte 0 1007.5 -0.3 77
2020-03-24 18:00:00 16.6 7 Norte 17 Norte 0 1007.3 -1 68
2020-03-24 17:00:00 17 9 Noroeste 20 Norte 0 1007.4 -1.4 67
2020-03-24 16:00:00 16.9 14 Norte 24 Norte 0 1007.8 -1.3 70
2020-03-24 15:00:00 17.2 8 Norte 20 Noroeste 0 1008.3 -1.1 71
2020-03-24 14:00:00 17.2 11 Norte 17 Norte 0 1008.8 -0.7 68
2020-03-24 13:00:00 17.4 8 Norte 12 Norte 0 1009.1 -0.3 65
2020-03-24 12:00:00 16.1 5 Norte 10 Nordeste 0 1009.4 0.3 69
2020-03-24 11:00:00 15.4 4 Nordeste 11 Este 0 1009.5 0.4 71
2020-03-24 10:00:00 13.6 7 Sudeste 12 Sudeste 0 1009.4 0.6 72
2020-03-24 09:00:00 11.4 4 Sudeste 17 Sudeste 0 1009.1 0.4 84
2020-03-24 08:00:00 9.3 9 Sudeste 16 Sudeste 0 1009.1 0.3 92
2020-03-24 07:00:00 9.2 6 Sudeste 13 Sur 0 1008.8 -0.3 92
2020-03-24 06:00:00 9.5 5 Sur 9 Sur 0 1008.7 -0.8 91
2020-03-24 05:00:00 9.9 3 Sudeste 5 Sudeste 0 1008.8 -0.9 91
2020-03-24 04:00:00 10.4 3 Sur 8 Sur 0 1009.1 -1.2 89
2020-03-24 03:00:00 10.8 6 Sudeste 12 Este 0 1009.5 -1.2 88
2020-03-24 02:00:00 11.5 8 Nordeste 23 Norte 0 1009.7 -1.2 90
2020-03-24 01:00:00 11.2 13 Norte 22 Norte 0 1010.3 -0.7 88
2020-03-24 00:00:00 10.8 10 Nordeste 15 Norte 0 1010.7 0.1 82
2020-03-23 23:00:00 10.6 11 Nordeste 28 Nordeste 0 1010.9 0.4 82
2020-03-23 22:00:00 10.6 15 Nordeste 31 Nordeste 0 1011 0.8 82
2020-03-23 21:00:00 10.7 20 Nordeste 33 Nordeste 0 1010.6 0.5 83
2020-03-23 20:00:00 10.7 19 Nordeste 37 Nordeste 0 1010.5 0.6 83
2020-03-23 19:00:00 11.1 18 Nordeste 32 Nordeste 0 1010.2 -0.4 79
2020-03-23 18:00:00 11.5 19 Nordeste 34 Nordeste 0 1010.1 -0.7 78
2020-03-23 17:00:00 11.7 21 Este 31 Norte 0 1009.9 -1 78
2020-03-23 16:00:00 11.6 22 Nordeste 36 Nordeste 0 1010.6 -0.6 80
2020-03-23 15:00:00 11.6 21 Norte 40 Norte 0 1010.8 -0.7 81
2020-03-23 14:00:00 13.2 17 Nordeste 34 Nordeste 0 1010.9 -0.6 80
2020-03-23 13:00:00 12.7 20 Nordeste 36 Nordeste 0 1011.2 -0.5 81
2020-03-23 12:00:00 12 20 Nordeste 37 Nordeste 0 1011.5 0.4 85
2020-03-23 11:00:00 11.8 16 Nordeste 26 Nordeste 0 1011.5 1.1 85
2020-03-23 10:00:00 11.5 18 Nordeste 39 Nordeste 0 1011.7 1.9 87
2020-03-23 09:00:00 11.7 21 Nordeste 37 Nordeste 0 1011.1 1.4 88
2020-03-23 08:00:00 11.6 17 Nordeste 27 Norte 0 1010.4 1 89
2020-03-23 07:00:00 11.8 17 Nordeste 32 Nordeste 0 1009.8 0.7 88
2020-03-23 06:00:00 11.9 16 Nordeste 28 Norte 0 1009.7 0.6 89
2020-03-23 05:00:00 12 15 Nordeste 27 Nordeste 0 1009.4 0 89
2020-03-23 04:00:00 12.3 16 Nordeste 27 Norte 0 1009.1 -0.4 85
2020-03-23 03:00:00 12.4 15 Nordeste 27 Nordeste 0 1009.1 -0.6 83
2020-03-23 02:00:00 12.4 14 Nordeste 22 Nordeste 0 1009.4 -0.3 85
2020-03-23 01:00:00 12.5 14 Nordeste 27 Nordeste 0 1009.5 0.3 85
2020-03-23 00:00:00 12.6 14 Nordeste 24 Nordeste 0 1009.7 1.1 88
2020-03-22 23:00:00 12.7 16 Nordeste 29 Nordeste 0 1009.7 1.8 88
2020-03-22 22:00:00 12.9 14 Nordeste 24 Norte 0 1009.2 1.8 89
2020-03-22 21:00:00 12.9 14 Nordeste 27 Norte 0 1008.6 1.8 89
2020-03-22 20:00:00 13 16 Norte 32 Nordeste 0 1007.9 0.8 89
2020-03-22 19:00:00 13.4 19 Norte 34 Norte 0 1007.4 0.5 86
2020-03-22 18:00:00 13.8 18 Norte 37 Norte 0 1006.8 -0.4 86
2020-03-22 17:00:00 13.8 28 Norte 41 Norte 0 1007.1 -0.2 86
2020-03-22 16:00:00 14.5 22 Norte 30 Norte 0 1006.9 -0.5 83
2020-03-22 15:00:00 14.9 17 Norte 28 Norte 0 1007.2 -0.2 79
2020-03-22 14:00:00 14.3 11 Norte 21 Norte 0 1007.3 -0.1 83
2020-03-22 13:00:00 14.3 10 Norte 15 Noroeste 0 1007.4 0.2 78
2020-03-22 12:00:00 13.9 5 Nordeste 13 Este 0 1007.4 0.7 76
2020-03-22 11:00:00 13.1 5 Sudeste 11 Este 0 1007.4 1.1 78
2020-03-22 10:00:00 12.5 6 Este 12 Este 0 1007.2 1.4 85
2020-03-22 09:00:00 12.1 7 Nordeste 11 Nordeste 0 1006.7 1.1 86
2020-03-22 08:00:00 12 8 Nordeste 17 Norte 0 1006.3 1 89
2020-03-22 07:00:00 12 8 Norte 16 Norte 0 1005.8 0.6 87
2020-03-22 06:00:00 12 9 Norte 14 Norte 0 1005.6 0.3 87
2020-03-22 05:00:00 12 6 Norte 17 Norte 0 1005.3 0 85
2020-03-22 04:00:00 12 9 Norte 17 Noroeste 0 1005.2 -0.1 84
2020-03-22 03:00:00 12.1 8 Noroeste 13 Norte 0 1005.3 -0.1 86
2020-03-22 02:00:00 12.2 8 Norte 14 Norte 0 1005.3 0.3 87
2020-03-22 01:00:00 12.2 8 Norte 14 Norte 0 1005.3 0.3 87
2020-03-22 00:00:00 12.4 8 Norte 16 Norte 0 1005.4 0.5 87
2020-03-21 23:00:00 12.4 5 Nordeste 9 Nordeste 0 1005 0.7 88
2020-03-21 22:00:00 12.4 4 Nordeste 17 Norte 0 1005 1.6 89
2020-03-21 21:00:00 12.4 9 Norte 17 Norte 0 1004.9 1.9 89
2020-03-21 20:00:00 12.3 7 Norte 17 Norte 0 1004.3 1.5 89
2020-03-21 19:00:00 12.4 6 Noroeste 19 Norte 0 1003.4 0.6 89
2020-03-21 18:00:00 12.6 11 Norte 20 Noroeste 0 1003 0.2 90
2020-03-21 17:00:00 12.8 11 Norte 21 Norte 0 1002.8 -0.2 89
2020-03-21 16:00:00 13.4 9 Noroeste 19 Norte 0 1002.8 -0.2 88
2020-03-21 15:00:00 14 10 Norte 22 Noroeste 0 1002.8 -0.2 87
2020-03-21 14:00:00 14.5 11 Norte 19 Norte 0 1003 -0.1 84
2020-03-21 13:00:00 14.5 8 Noroeste 15 Norte 0 1003 -0.2 84
2020-03-21 12:00:00 14.2 9 Norte 13 Norte 0 1003 -0.1 84
2020-03-21 11:00:00 13.2 6 Este 9 Nordeste 0 1003.1 0.3 91
2020-03-21 10:00:00 12.4 4 Nordeste 9 Este 0 1003.2 0.5 95
2020-03-21 09:00:00 12.3 5 Este 10 Este 0 1003.1 0.9 97
2020-03-21 08:00:00 12.3 5 Norte 11 Noroeste 0 1002.8 0.3 97
2020-03-21 07:00:00 12.3 4 Norte 11 Norte 0 1002.7 -0.5 97
2020-03-21 06:00:00 12.3 5 Norte 8 Norte 0 1002.2 -1.5 96
2020-03-21 05:00:00 12.2 4 Norte 8 Norte 0 1002.5 -1.3 96
2020-03-21 04:00:00 12.1 0 Calma 7 Noroeste 0 1003.2 -1.3 96
2020-03-21 03:00:00 12.1 2 Este 6 Sudeste 0 1003.7 -1.4 97
2020-03-21 02:00:00 12.1 2 Oeste 8 Oeste 0 1003.8 -1.4 97
2020-03-21 01:00:00 12.1 4 Sudoeste 7 Sudoeste 0 1004.5 -0.8 97
2020-03-21 00:00:00 12.2 2 Oeste 7 Noroeste 0 1005.1 0 97
2020-03-20 23:00:00 12.6 6 Oeste 10 Oeste 0 1005.2 0.3 98
2020-03-20 22:00:00 12.6 6 Noroeste 11 Oeste 0 1005.3 0.3 98
2020-03-20 21:00:00 12.6 5 Oeste 12 Oeste 0.2 1005.1 0.6 97
2020-03-20 20:00:00 12.7 6 Oeste 12 Norte 1.8 1004.9 0.4 96
2020-03-20 19:00:00 13 5 Noroeste 13 Norte 2.2 1005 0.5 96
2020-03-20 18:00:00 13.4 13 Noroeste 19 Oeste 2 1004.5 -0.3 96
2020-03-20 17:00:00 13.7 9 Noroeste 17 Norte 0.8 1004.5 -0.7 93
2020-03-20 16:00:00 15.2 9 Norte 14 Noroeste 0 1004.5 -1.1 85
2020-03-20 15:00:00 15.5 6 Nordeste 9 Nordeste 0 1004.8 -1.1 82
2020-03-20 14:00:00 15.6 5 Nordeste 10 Sudeste 0 1005.2 -1 90
2020-03-20 13:00:00 14.1 6 Este 12 Sudeste 0.2 1005.6 -0.6 94
2020-03-20 12:00:00 13.5 5 Este 9 Sur 1.2 1005.9 0 96
2020-03-20 11:00:00 13.1 5 Sudeste 11 Sudeste 1.2 1006.2 0.5 97
2020-03-20 10:00:00 12.8 7 Sudeste 13 Sudeste 2.4 1006.2 0.9 97
2020-03-20 09:00:00 12.7 7 Sudeste 13 Sudeste 2.6 1005.9 0.9 96
2020-03-20 08:00:00 12.7 8 Sudeste 15 Sudeste 2.6 1005.7 0.8 97
2020-03-20 07:00:00 12.7 6 Sudeste 11 Sudeste 2 1005.3 0.1 98
2020-03-20 06:00:00 12.6 5 Este 11 Sudeste 0.2 1005 -1 98
2020-03-20 05:00:00 12.5 8 Sudeste 14 Sudeste 0.4 1004.9 -1.4 98
2020-03-20 04:00:00 12.5 8 Este 15 Este 1 1005.2 -1.2 99
2020-03-20 03:00:00 12.4 5 Norte 10 Nordeste 1.2 1006 -1 98
2020-03-20 02:00:00 12.3 0 Calma 7 Noroeste 0.8 1006.3 -1.5 97
2020-03-20 01:00:00 12.3 4 Este 16 Este 1.2 1006.4 -1.5 96
2020-03-20 00:00:00 12.3 6 Este 12 Sudeste 0.4 1007 -1.3 94
2020-03-19 23:00:00 12.4 7 Sudeste 11 Sudeste 0 1007.8 -0.8 93
2020-03-19 22:00:00 12.4 2 Este 8 Sudoeste 0.2 1007.9 -0.4 93
2020-03-19 21:00:00 12.5 4 Oeste 11 Oeste 0 1008.3 -0.1 92
2020-03-19 20:00:00 12.4 9 Norte 23 Norte 0 1008.6 -0.3 91
2020-03-19 19:00:00 12.6 12 Norte 20 Norte 0 1008.3 -0.8 92
2020-03-19 18:00:00 12.9 6 Noroeste 13 Oeste 0 1008.4 -1.3 89
2020-03-19 17:00:00 12.7 4 Noroeste 14 Noroeste 0 1008.9 -1.3 87
2020-03-19 16:00:00 13.4 9 Noroeste 20 Oeste 0 1009.1 -1.9 86
2020-03-19 15:00:00 13.4 9 Noroeste 23 Oeste 0 1009.7 -1.8 85
2020-03-19 14:00:00 14 14 Oeste 22 Oeste 0 1010.2 -1.5 82
2020-03-19 13:00:00 12.8 5 Norte 9 Noroeste 0 1011 -0.9 91
2020-03-19 12:00:00 11.9 4 Nordeste 7 Nordeste 0 1011.5 0 95
2020-03-19 11:00:00 11.3 3 Nordeste 9 Norte 0 1011.7 0.1 97
2020-03-19 10:00:00 11 4 Noroeste 8 Oeste 0 1011.9 0 98
2020-03-19 09:00:00 10.8 2 Sur 13 Este 0 1011.5 -0.4 98
2020-03-19 08:00:00 11 8 Este 11 Este 0 1011.6 -0.7 98
2020-03-19 07:00:00 11.2 0 Calma 6 Este 0 1011.9 -0.8 97
2020-03-19 06:00:00 11.2 3 Sudeste 8 Sudeste 0 1011.9 -1.4 96
2020-03-19 05:00:00 11.3 4 Sudeste 9 Este 0 1012.3 -1.6 95
2020-03-19 04:00:00 11.3 3 Sudeste 5 Este 0 1012.7 -1.5 94
2020-03-19 03:00:00 11.5 2 Este 5 Sudeste 0 1013.3 -1.4 95
2020-03-19 02:00:00 11.6 2 Sudeste 14 Sudoeste 0 1013.9 -0.9 94
2020-03-19 01:00:00 11.8 8 Sudoeste 15 Sudoeste 0 1014.2 -0.6 94
2020-03-19 00:00:00 11.9 3 Sur 18 Sudoeste 0 1014.7 -0.2 93
2020-03-18 23:00:00 12.2 11 Sudoeste 21 Sudoeste 0 1014.8 0 92
2020-03-18 22:00:00 12.6 7 Sudoeste 18 Sudoeste 0 1014.8 0.3 90
2020-03-18 21:00:00 12.7 10 Sudoeste 21 Sudoeste 0 1014.9 0.4 91
2020-03-18 20:00:00 13.1 12 Oeste 21 Noroeste 0 1014.8 0.1 90
2020-03-18 19:00:00 14 7 Oeste 19 Noroeste 0 1014.5 -0.8 85
2020-03-18 18:00:00 14.1 9 Noroeste 16 Oeste 0 1014.5 -1.4 85
2020-03-18 17:00:00 14.5 10 Noroeste 22 Norte 0 1014.7 -2 83
2020-03-18 16:00:00 15.4 10 Noroeste 22 Norte 0 1015.3 -1.9 80
2020-03-18 15:00:00 16 8 Noroeste 19 Norte 0 1015.9 -1.6 77
2020-03-18 14:00:00 16.7 11 Norte 18 Norte 0 1016.7 -1 63
2020-03-18 13:00:00 15.8 10 Norte 16 Norte 0 1017.2 -0.6 77
2020-03-18 12:00:00 17 7 Norte 11 Este 0 1017.5 -0.3 63
2020-03-18 11:00:00 16.2 5 Este 14 Sudeste 0 1017.7 -0.2 65
2020-03-18 10:00:00 13.3 6 Sudeste 18 Sudeste 0 1017.8 -0.1 72
2020-03-18 09:00:00 10.9 5 Sudeste 17 Sur 0.4 1017.8 -0.2 83
2020-03-18 08:00:00 9.9 12 Sudeste 20 Sudeste 0 1017.9 0 84
2020-03-18 07:00:00 9.9 7 Sudeste 11 Sudeste 0 1017.9 -0.1 86
2020-03-18 06:00:00 9.8 5 Sur 10 Sur 0 1018 -0.3 86
2020-03-18 05:00:00 10 7 Sur 10 Sur 0 1017.9 -0.8 86
2020-03-18 04:00:00 10.3 5 Sudeste 13 Sudeste 0 1018 -1.1 85
2020-03-18 03:00:00 10.5 6 Sudeste 12 Sudeste 0 1018.3 -1.1 85
2020-03-18 02:00:00 10.7 2 Sudeste 10 Este 0 1018.7 -0.8 86
2020-03-18 01:00:00 11.1 8 Sudeste 15 Sudeste 0 1019.1 -0.2 85
2020-03-18 00:00:00 11.4 7 Este 13 Sudeste 0 1019.4 0.8 83
2020-03-17 23:00:00 12 6 Nordeste 11 Este 0 1019.5 1.4 81
2020-03-17 22:00:00 12.4 5 Nordeste 14 Este 0 1019.3 1.5 80
2020-03-17 21:00:00 13.1 8 Este 14 Este 0 1018.6 0.7 76
2020-03-17 20:00:00 13.6 9 Este 21 Nordeste 0 1018.1 0.1 76
2020-03-17 19:00:00 14.6 11 Este 24 Nordeste 0 1017.8 -0.1 73
2020-03-17 18:00:00 15.3 15 Nordeste 26 Nordeste 0 1017.9 -0.5 68
2020-03-17 17:00:00 15.9 15 Nordeste 30 Nordeste 0 1018 -1.1 67
2020-03-17 16:00:00 16.5 21 Nordeste 32 Nordeste 0 1017.9 -1.8 62
2020-03-17 15:00:00 17.1 18 Nordeste 29 Nordeste 0 1018.4 -1.7 57
2020-03-17 14:00:00 16.3 16 Nordeste 30 Nordeste 0 1019.1 -1.2 59
2020-03-17 13:00:00 15.6 17 Nordeste 31 Este 0 1019.7 -0.5 61
2020-03-17 12:00:00 14.8 17 Nordeste 27 Nordeste 0 1020.1 0 61
2020-03-17 11:00:00 13.3 15 Nordeste 27 Norte 0 1020.3 0.6 65
2020-03-17 10:00:00 11.6 21 Nordeste 33 Nordeste 0 1020.2 0.5 68
2020-03-17 09:00:00 10.7 18 Nordeste 28 Nordeste 0 1020.1 0.7 71
2020-03-17 08:00:00 9.7 17 Nordeste 30 Nordeste 0 1019.7 0.5 74
2020-03-17 07:00:00 9.8 14 Nordeste 31 Nordeste 0 1019.7 0.5 73
2020-03-17 06:00:00 9.8 19 Nordeste 31 Nordeste 0 1019.4 0 72
2020-03-17 05:00:00 9.7 16 Nordeste 25 Nordeste 0 1019.2 -0.3 73
2020-03-17 04:00:00 9.8 18 Nordeste 31 Nordeste 0 1019.2 -0.7 73
2020-03-17 03:00:00 10 21 Nordeste 33 Nordeste 0 1019.4 -0.5 72
2020-03-17 02:00:00 10.2 19 Nordeste 30 Nordeste 0 1019.5 -0.5 73
2020-03-17 01:00:00 10.5 22 Nordeste 32 Nordeste 0 1019.9 0.1 70
2020-03-17 00:00:00 10.6 19 Nordeste 32 Nordeste 0 1019.9 0.5 71
2020-03-16 23:00:00 10.6 19 Nordeste 30 Nordeste 0 1020 1.3 74
2020-03-16 22:00:00 10.6 22 Nordeste 33 Nordeste 0 1019.8 1.5 71
2020-03-16 21:00:00 10.7 18 Nordeste 42 Nordeste 0 1019.4 1.7 73
2020-03-16 20:00:00 10.9 28 Nordeste 49 Nordeste 0 1018.7 1.1 71
2020-03-16 19:00:00 11.2 25 Nordeste 46 Nordeste 0 1018.3 0.9 72
2020-03-16 18:00:00 11.4 25 Nordeste 49 Nordeste 0 1017.7 0.3 69
2020-03-16 17:00:00 11.7 27 Norte 49 Norte 0 1017.6 0.1 69
2020-03-16 16:00:00 12.1 25 Norte 44 Norte 0 1017.4 -0.1 67
2020-03-16 15:00:00 12.2 25 Norte 50 Nordeste 0 1017.4 0.1 66
2020-03-16 14:00:00 11.5 26 Norte 52 Norte 0 1017.5 0.5 68
2020-03-16 13:00:00 11.4 24 Nordeste 50 Norte 0 1017.5 1.2 66
2020-03-16 12:00:00 12.2 28 Norte 49 Norte 0 1017.3 2 63
2020-03-16 11:00:00 11.1 27 Norte 47 Norte 0 1017 2.7 65
2020-03-16 10:00:00 11 24 Nordeste 49 Norte 0 1016.3 2.4 66
2020-03-16 09:00:00 10 18 Nordeste 53 Norte 0 1015.3 1.7 74
2020-03-16 08:00:00 10.2 38 Norte 51 Norte 0 1014.3 1.5 69
2020-03-16 07:00:00 10.1 28 Norte 53 Norte 0.8 1013.9 1.3 72
2020-03-16 06:00:00 9.5 25 Norte 57 Norte 0.4 1013.6 1.1 74
2020-03-16 05:00:00 10.2 32 Norte 51 Norte 0 1012.8 0.8 72
2020-03-16 04:00:00 10 21 Norte 49 Norte 0 1012.6 1 75
2020-03-16 03:00:00 10.4 30 Norte 47 Norte 0 1012.5 1.3 68
2020-03-16 02:00:00 10 26 Norte 45 Norte 0 1012 1 70
2020-03-16 01:00:00 9.9 13 Nordeste 43 Norte 0 1011.6 1.1 73
2020-03-16 00:00:00 9.9 22 Norte 42 Nordeste 0 1011.2 1.1 72
2020-03-15 23:00:00 9.9 27 Norte 48 Norte 0 1011 1.6 72
2020-03-15 22:00:00 9.6 17 Norte 38 Noroeste 0 1010.5 1.5 77
2020-03-15 21:00:00 9.5 15 Noroeste 37 Norte 0.6 1010.1 1.4 70
2020-03-15 20:00:00 9.5 17 Noroeste 42 Noroeste 0 1009.4 0.5 72
2020-03-15 19:00:00 9.4 15 Noroeste 26 Oeste 1 1009 0.8 76
2020-03-15 18:00:00 9.4 7 Noroeste 14 Noroeste 0.6 1008.7 0.5 75
2020-03-15 17:00:00 9 12 Oeste 47 Oeste 0.4 1008.9 0.3 80
2020-03-15 16:00:00 9.7 8 Sur 21 Oeste 0.4 1008.2 -0.6 80
2020-03-15 15:00:00 9.3 7 Sudoeste 15 Sudoeste 0 1008.2 0 79
2020-03-15 14:00:00 8.8 3 Sudoeste 22 Noroeste 1 1008.6 0.5 85
2020-03-15 13:00:00 8.3 18 Noroeste 41 Noroeste 2.4 1008.8 2.1 87
2020-03-15 12:00:00 10 17 Oeste 39 Oeste 1.8 1008.2 1.9 84
2020-03-15 11:00:00 9.7 20 Noroeste 41 Oeste 2.8 1008.1 1.3 91
2020-03-15 10:00:00 12.5 13 Sudoeste 36 Noroeste 0 1006.7 -0.5 75
2020-03-15 09:00:00 11.2 16 Sur 31 Sudoeste 0 1006.3 -1.3 78
2020-03-15 08:00:00 11.1 11 Sudoeste 22 Sudoeste 0 1006.8 -1 81
2020-03-15 07:00:00 11.1 8 Sur 23 Sur 0 1007.2 -1.4 81
2020-03-15 06:00:00 9.8 8 Sudeste 16 Sudeste 0 1007.6 -1.3 85
2020-03-15 05:00:00 9.7 9 Sur 19 Sudoeste 0 1007.8 -1.2 87
2020-03-15 04:00:00 9.3 12 Sudoeste 19 Oeste 0 1008.6 -1.4 88
2020-03-15 03:00:00 8.7 3 Noroeste 10 Noroeste 0 1008.9 -2 90
2020-03-15 02:00:00 9.3 0 Calma 13 Sur 0 1009 -2.7 88
2020-03-15 01:00:00 10.1 9 Sur 13 Sur 0 1010 -2.2 88
2020-03-15 00:00:00 10.6 7 Sur 9 Sudeste 0 1010.9 -1.8 86
2020-03-14 23:00:00 10.8 3 Nordeste 9 Nordeste 0 1011.7 -1.2 85
2020-03-14 22:00:00 11.3 5 Nordeste 11 Norte 0 1012.2 -0.8 84
2020-03-14 21:00:00 11.5 6 Norte 15 Norte 0 1012.7 -0.1 82
2020-03-14 20:00:00 11.9 10 Norte 19 Norte 0 1012.9 -0.4 81
2020-03-14 19:00:00 12.4 12 Norte 21 Norte 0 1013 -0.6 80
2020-03-14 18:00:00 13.1 12 Norte 19 Noroeste 0 1012.8 -1.3 76
2020-03-14 17:00:00 13.5 10 Norte 24 Noroeste 0 1013.3 -1.6 67
2020-03-14 16:00:00 14.5 16 Norte 22 Norte 0 1013.6 -2.1 63
2020-03-14 15:00:00 14.9 13 Norte 21 Norte 0 1014.1 -2.2 59
2020-03-14 14:00:00 15.6 10 Norte 17 Norte 0 1014.9 -1.9 56
2020-03-14 13:00:00 15.3 8 Norte 15 Este 0 1015.7 -1.2 56
2020-03-14 12:00:00 14.7 5 Este 13 Este 0 1016.3 -0.5 60
2020-03-14 11:00:00 12.9 11 Sudeste 17 Sur 0 1016.8 0.4 64
2020-03-14 10:00:00 11.7 8 Sudeste 14 Sur 0 1016.9 0.7 68
2020-03-14 09:00:00 11.1 9 Sur 17 Sur 0 1016.8 0.5 70
2020-03-14 08:00:00 10.7 6 Sur 15 Sur 0 1016.4 0.3 72
2020-03-14 07:00:00 10.1 11 Sur 19 Sur 0 1016.2 -0.4 74
2020-03-14 06:00:00 9.8 11 Sur 17 Sur 0 1016.3 -0.8 75
2020-03-14 05:00:00 9.5 10 Sur 15 Sur 0 1016.1 -1.3 77
2020-03-14 04:00:00 9.7 9 Sudeste 15 Sur 0 1016.6 -1.1 79
2020-03-14 03:00:00 10 5 Sudeste 8 Sur 0 1017.1 -0.9 78
2020-03-14 02:00:00 9.9 5 Sudeste 9 Sudeste 0 1017.4 -0.5 80
2020-03-14 01:00:00 10.1 7 Nordeste 15 Este 0 1017.7 0.1 76
2020-03-14 00:00:00 10.7 10 Nordeste 18 Nordeste 0 1018 1 74
2020-03-13 23:00:00 10.9 13 Norte 26 Norte 0 1017.9 1.2 76
2020-03-13 22:00:00 11 17 Norte 30 Norte 0 1017.6 1.6 77
2020-03-13 21:00:00 11 11 Nordeste 33 Norte 0 1017 1.1 79
2020-03-13 20:00:00 11.1 24 Norte 37 Norte 0 1016.7 0.9 78
2020-03-13 19:00:00 11.4 24 Norte 38 Norte 0 1016 -0.2 76
2020-03-13 18:00:00 11.8 24 Norte 35 Norte 0 1015.9 -1 77
2020-03-13 17:00:00 11.8 28 Norte 39 Norte 0 1015.8 -1.8 76
2020-03-13 16:00:00 12.4 24 Norte 45 Norte 0 1016.2 -1.8 72
2020-03-13 15:00:00 12.5 21 Norte 36 Norte 0 1016.9 -1.1 72
2020-03-13 14:00:00 12.5 19 Norte 41 Norte 0 1017.6 -0.4 72
2020-03-13 13:00:00 12.1 21 Norte 31 Norte 0 1018 -0.1 72
2020-03-13 12:00:00 13.1 15 Nordeste 27 Nordeste 0 1018 0.4 68
2020-03-13 11:00:00 12.5 18 Nordeste 32 Nordeste 0 1018 0.9 67
2020-03-13 10:00:00 11.3 19 Nordeste 34 Nordeste 0 1018.1 1.2 67
2020-03-13 09:00:00 10.6 15 Nordeste 27 Nordeste 0 1017.6 0.7 72
2020-03-13 08:00:00 10.3 16 Nordeste 28 Nordeste 0 1017.1 0 76
2020-03-13 07:00:00 10.2 18 Nordeste 33 Nordeste 0 1016.9 -0.7 76
2020-03-13 06:00:00 10 18 Nordeste 30 Nordeste 0 1016.9 -1.2 76
2020-03-13 05:00:00 10.1 21 Nordeste 34 Nordeste 0 1017.1 -1.3 76
2020-03-13 04:00:00 10.4 22 Nordeste 34 Nordeste 0 1017.6 -0.9 72
2020-03-13 03:00:00 10.5 21 Nordeste 37 Nordeste 0 1018.1 -0.5 71
2020-03-13 02:00:00 10.4 21 Nordeste 35 Nordeste 0 1018.4 0 71
2020-03-13 01:00:00 10.2 18 Nordeste 32 Nordeste 0 1018.5 0.2 72
2020-03-13 00:00:00 10.2 21 Nordeste 32 Nordeste 0 1018.6 0.4 69
2020-03-12 23:00:00 10.2 21 Nordeste 30 Nordeste 0 1018.4 0.5 68
2020-03-12 22:00:00 10.7 14 Nordeste 30 Este 0 1018.3 0.7 74
2020-03-12 21:00:00 11 18 Nordeste 31 Nordeste 0 1018.2 1 73
2020-03-12 20:00:00 11.3 18 Nordeste 32 Norte 0 1017.9 0.8 71
2020-03-12 19:00:00 11.5 22 Nordeste 37 Nordeste 0 1017.6 0.5 69
2020-03-12 18:00:00 11.9 22 Norte 38 Nordeste 0 1017.2 -0.1 73
2020-03-12 17:00:00 12 17 Nordeste 32 Norte 0 1017.1 -0.6 70
2020-03-12 16:00:00 12.5 19 Nordeste 37 Nordeste 0 1017.1 -0.8 70
2020-03-12 15:00:00 12.4 22 Nordeste 35 Norte 0 1017.3 -0.4 75
2020-03-12 14:00:00 12.4 19 Norte 36 Norte 0 1017.7 0.4 83
2020-03-12 13:00:00 12.9 17 Norte 29 Norte 0.2 1017.9 0.9 80
2020-03-12 12:00:00 12.9 22 Norte 28 Norte 0 1017.7 1.2 81
2020-03-12 11:00:00 13.1 13 Norte 26 Norte 0 1017.3 1.4 82
2020-03-12 10:00:00 13.1 8 Nordeste 21 Norte 0 1017 1.6 85
2020-03-12 09:00:00 12.5 8 Norte 14 Nordeste 0 1016.5 1.4 91
2020-03-12 08:00:00 12.3 4 Noroeste 8 Norte 0 1015.9 0.8 91
2020-03-12 07:00:00 12.3 3 Este 5 Nordeste 0 1015.4 -0.1 91
2020-03-12 06:00:00 12.7 3 Noroeste 4 Norte 0 1015.1 -0.8 93
2020-03-12 05:00:00 12.6 2 Oeste 10 Oeste 0 1015.1 -0.7 92
2020-03-12 04:00:00 12.9 6 Oeste 13 Oeste 0 1015.5 -0.4 92
2020-03-12 03:00:00 12.7 4 Sudoeste 10 Sudoeste 0 1015.9 0 88
2020-03-12 02:00:00 12.7 9 Sudoeste 13 Oeste 0 1015.8 -0.1 85
2020-03-12 01:00:00 12.5 5 Oeste 10 Sudoeste 0 1015.9 0.2 81
2020-03-12 00:00:00 13 6 Sudoeste 12 Sudoeste 0 1015.9 0.3 80
2020-03-11 23:00:00 13.2 5 Oeste 15 Oeste 0 1015.9 0.4 80
2020-03-11 22:00:00 13.8 9 Oeste 14 Sudoeste 0 1015.7 0.1 81
2020-03-11 21:00:00 14.1 10 Sudoeste 15 Oeste 0 1015.6 0.2 83
2020-03-11 20:00:00 14.8 8 Oeste 21 Oeste 0 1015.5 0 79
2020-03-11 19:00:00 15.1 10 Oeste 21 Sudoeste 0 1015.6 0.1 78
2020-03-11 18:00:00 14.9 12 Oeste 24 Oeste 0 1015.4 -0.3 81
2020-03-11 17:00:00 14.5 12 Oeste 30 Oeste 0 1015.5 -0.5 84
2020-03-11 16:00:00 15.1 19 Oeste 31 Oeste 0 1015.5 -0.8 83
2020-03-11 15:00:00 16.2 21 Oeste 26 Oeste 0 1015.7 -1 79
2020-03-11 14:00:00 16.1 9 Oeste 19 Noroeste 0 1016 -0.9 77
2020-03-11 13:00:00 16.1 5 Oeste 14 Oeste 0 1016.3 -0.5 78
2020-03-11 12:00:00 14.8 8 Oeste 21 Oeste 0 1016.7 0.1 80
2020-03-11 11:00:00 14.4 8 Oeste 19 Oeste 0 1016.9 0.2 81
2020-03-11 10:00:00 13.8 7 Sudoeste 16 Sudeste 0 1016.8 -0.1 83
2020-03-11 09:00:00 13.3 7 Sur 17 Sudeste 0 1016.6 -0.4 83
2020-03-11 08:00:00 12.9 9 Sur 14 Sur 0 1016.7 -0.4 86
2020-03-11 07:00:00 12.9 5 Sur 11 Sur 0 1016.9 -0.6 86
2020-03-11 06:00:00 13.1 4 Sur 12 Sur 0 1017 -1 85
2020-03-11 05:00:00 13.2 5 Sur 14 Sur 0 1017.1 -1.3 85
2020-03-11 04:00:00 13.5 7 Sudeste 15 Sur 0 1017.5 -1.2 84
2020-03-11 03:00:00 13.7 7 Sur 15 Sur 0 1018 -0.6 82
2020-03-11 02:00:00 13.7 7 Sur 19 Sur 0 1018.4 -0.4 81
2020-03-11 01:00:00 14 7 Sur 15 Sur 0 1018.7 -0.1 80
2020-03-11 00:00:00 14.1 8 Sur 15 Sur 0 1018.6 -0.3 80
2020-03-10 23:00:00 14.4 8 Sudoeste 19 Sur 0 1018.8 0.1 79
2020-03-10 22:00:00 14.7 11 Sur 21 Sur 0 1018.8 0.6 79
2020-03-10 21:00:00 15 10 Sudoeste 19 Sudoeste 0 1018.9 0.9 78
2020-03-10 20:00:00 15.4 8 Sudoeste 22 Sudoeste 0 1018.7 0.5 75
2020-03-10 19:00:00 15.9 15 Sudoeste 30 Sudoeste 0 1018.2 -0.1 72
2020-03-10 18:00:00 16.5 12 Sudoeste 26 Sudoeste 0 1018 -0.6 70
2020-03-10 17:00:00 16.5 15 Sudoeste 33 Sudoeste 0 1018.2 -0.8 70
2020-03-10 16:00:00 17 14 Sudoeste 30 Sudoeste 0 1018.3 -1.3 69
2020-03-10 15:00:00 16.9 12 Sudoeste 30 Sudoeste 0 1018.6 -1.3 69
2020-03-10 14:00:00 16.1 16 Sudoeste 28 Sudoeste 0 1019 -0.9 70
2020-03-10 13:00:00 15.4 10 Sudoeste 22 Sudoeste 0 1019.6 -0.2 72
2020-03-10 12:00:00 14.4 12 Sudoeste 23 Sur 0 1019.9 0.7 74
2020-03-10 11:00:00 13.6 7 Sur 18 Sur 0 1019.9 1.2 74
2020-03-10 10:00:00 12.5 6 Sudeste 14 Sudoeste 0 1019.8 0.8 78
2020-03-10 09:00:00 11.6 6 Sudeste 10 Sudeste 0 1019.2 -0.1 83
2020-03-10 08:00:00 11.4 8 Sur 19 Sudoeste 0 1018.7 -0.6 83
2020-03-10 07:00:00 11.3 6 Sur 15 Sur 0 1019 -0.9 83
2020-03-10 06:00:00 10.9 3 Sur 10 Sudeste 0 1019.3 -1.1 84
2020-03-10 05:00:00 11 7 Sudeste 14 Sur 0 1019.3 -1.3 82
2020-03-10 04:00:00 10.9 5 Sur 14 Sur 0 1019.9 -1.1 83
2020-03-10 03:00:00 10.6 8 Sur 15 Sur 0 1020.4 -0.9 83
2020-03-10 02:00:00 10.6 8 Sur 14 Sudeste 0 1020.6 -1 81
2020-03-10 01:00:00 11.2 6 Sur 18 Sudoeste 0 1021 -0.7 79
2020-03-10 00:00:00 11.4 7 Sur 15 Sur 0 1021.3 -0.2 76
2020-03-09 23:00:00 11.7 5 Sudoeste 14 Sudoeste 0 1021.6 0.2 77
2020-03-09 22:00:00 11.9 4 Sudoeste 17 Sudoeste 0 1021.7 0.5 81
2020-03-09 21:00:00 12.1 9 Oeste 19 Sudoeste 0 1021.5 0.4 82
2020-03-09 20:00:00 12.4 10 Oeste 30 Oeste 0 1021.4 -0.1 82
2020-03-09 19:00:00 12.9 18 Oeste 32 Oeste 0 1021.2 -0.4 79
2020-03-09 18:00:00 13.5 18 Oeste 31 Oeste 0 1021.1 -1.2 77
2020-03-09 17:00:00 14 22 Oeste 33 Oeste 0 1021.5 -1.5 75
2020-03-09 16:00:00 14.9 21 Oeste 32 Oeste 0 1021.6 -2.1 70
2020-03-09 15:00:00 15 22 Oeste 32 Noroeste 0 1022.3 -1.5 70
2020-03-09 14:00:00 15.5 14 Oeste 25 Oeste 0 1023 -0.7 67
2020-03-09 13:00:00 15.6 14 Oeste 25 Oeste 0 1023.7 0.3 62
2020-03-09 12:00:00 14.7 12 Oeste 22 Sudoeste 0 1023.8 0.9 64
2020-03-09 11:00:00 13.8 11 Oeste 21 Sudoeste 0 1023.7 1.6 72
2020-03-09 10:00:00 11.7 9 Sudoeste 17 Sudoeste 0 1023.4 1.6 77
2020-03-09 09:00:00 11 8 Sudoeste 17 Sudoeste 0 1022.9 1.1 78
2020-03-09 08:00:00 10 9 Sudoeste 18 Sudoeste 0 1022.1 1.1 82
2020-03-09 07:00:00 10.1 12 Sudoeste 21 Sudoeste 0 1021.8 0.2 81
2020-03-09 06:00:00 10.2 14 Sudoeste 18 Sudoeste 0 1021.8 -0.4 81
2020-03-09 05:00:00 10.6 10 Sudoeste 16 Sudoeste 0 1021 -0.8 81
2020-03-09 04:00:00 11.2 11 Oeste 20 Oeste 0 1021.6 -0.3 76
2020-03-09 03:00:00 11.2 10 Oeste 25 Oeste 0 1022.2 0.5 78
2020-03-09 02:00:00 11.6 14 Oeste 27 Oeste 0 1021.8 0.1 79
2020-03-09 01:00:00 11.6 11 Oeste 23 Oeste 0 1021.9 1.1 78
2020-03-09 00:00:00 11.8 18 Oeste 32 Oeste 0 1021.7 1.2 77